createdAt,value
2019-05-26T00:01:42.652Z,95.30
2019-05-26T00:04:10.924Z,96.40
2019-05-26T00:06:39.157Z,96.20
2019-05-26T00:09:07.427Z,96.20
2019-05-26T00:11:35.664Z,96.30
2019-05-26T00:14:03.942Z,96.20
2019-05-26T00:16:32.185Z,96.30
2019-05-26T00:19:00.449Z,96.00
2019-05-26T00:21:28.720Z,95.60
2019-05-26T00:23:56.970Z,95.30
2019-05-26T00:26:25.219Z,95.50
2019-05-26T00:28:53.465Z,95.50
2019-05-26T00:31:21.713Z,95.30
2019-05-26T00:33:49.969Z,94.80
2019-05-26T00:36:18.208Z,94.90
2019-05-26T00:38:46.495Z,94.60
2019-05-26T00:41:14.730Z,94.60
2019-05-26T00:43:42.982Z,94.50
2019-05-26T00:46:11.238Z,94.10
2019-05-26T00:48:39.480Z,94.50
2019-05-26T00:51:07.722Z,94.50
2019-05-26T00:53:35.975Z,94.20
2019-05-26T00:56:04.309Z,94.20
2019-05-26T00:58:32.550Z,94.40
2019-05-26T01:01:00.968Z,94.30
2019-05-26T01:03:29.324Z,94.10
2019-05-26T01:05:57.574Z,93.90
2019-05-26T01:08:25.808Z,93.90
2019-05-26T01:10:54.151Z,93.70
2019-05-26T01:13:22.397Z,93.60
2019-05-26T01:15:50.636Z,93.50
2019-05-26T01:18:18.877Z,93.30
2019-05-26T01:20:47.154Z,93.90
2019-05-26T01:23:15.389Z,94.10
2019-05-26T01:25:43.817Z,94.30
2019-05-26T01:28:12.099Z,93.90
2019-05-26T01:30:40.359Z,93.60
2019-05-26T01:33:08.585Z,94.20
2019-05-26T01:35:39.455Z,94.30
2019-05-26T01:38:22.267Z,94.10
2019-05-26T01:40:39.227Z,93.80
2019-05-26T01:43:07.610Z,93.90
2019-05-26T01:45:35.868Z,93.80
2019-05-26T01:48:04.967Z,93.60
2019-05-26T01:50:33.188Z,93.60
2019-05-26T01:53:01.449Z,93.50
2019-05-26T01:55:29.686Z,93.30
2019-05-26T01:57:57.949Z,93.20
2019-05-26T02:00:26.195Z,93.10
2019-05-26T02:02:54.586Z,93.00
2019-05-26T02:05:22.837Z,92.80
2019-05-26T02:07:51.092Z,92.80
2019-05-26T02:10:19.345Z,93.00
2019-05-26T02:12:47.578Z,93.20
2019-05-26T02:15:15.813Z,92.90
2019-05-26T02:17:44.289Z,92.80
2019-05-26T02:20:13.813Z,92.50
2019-05-26T02:22:42.110Z,93.00
2019-05-26T02:25:10.342Z,92.90
2019-05-26T02:27:39.415Z,92.80
2019-05-26T02:30:09.004Z,92.70
2019-05-26T02:32:37.259Z,92.40
2019-05-26T02:35:06.247Z,92.30
2019-05-26T02:37:34.546Z,92.20
2019-05-26T02:40:03.778Z,92.30
2019-05-26T02:42:32.018Z,92.50
2019-05-26T02:45:00.290Z,92.50
2019-05-26T02:47:28.517Z,92.70
2019-05-26T02:49:56.844Z,92.70
2019-05-26T02:52:25.128Z,92.50
2019-05-26T02:54:53.396Z,92.60
2019-05-26T02:57:21.638Z,92.70
2019-05-26T02:59:49.885Z,92.50
2019-05-26T03:02:18.119Z,92.60
2019-05-26T03:04:46.375Z,92.50
2019-05-26T03:07:14.635Z,92.40
2019-05-26T03:09:42.960Z,92.40
2019-05-26T03:12:11.198Z,92.70
2019-05-26T03:14:39.819Z,92.50
2019-05-26T03:17:08.179Z,92.40
2019-05-26T03:19:36.497Z,92.50
2019-05-26T03:22:04.804Z,92.50
2019-05-26T03:24:33.119Z,92.80
2019-05-26T03:27:01.382Z,92.90
2019-05-26T03:29:29.609Z,93.00
2019-05-26T03:31:57.863Z,93.00
2019-05-26T03:34:26.094Z,93.00
2019-05-26T03:36:54.354Z,93.20
2019-05-26T03:39:42.351Z,93.30
2019-05-26T03:41:52.578Z,93.10
2019-05-26T03:44:20.818Z,93.10
2019-05-26T03:46:49.065Z,92.90
2019-05-26T03:49:17.324Z,92.90
2019-05-26T03:51:45.613Z,92.80
2019-05-26T03:54:13.854Z,92.60
2019-05-26T03:56:42.096Z,93.20
2019-05-26T03:59:10.410Z,93.20
2019-05-26T04:01:38.664Z,93.10
2019-05-26T04:04:07.001Z,93.00
2019-05-26T04:06:35.233Z,92.70
2019-05-26T04:09:05.090Z,92.90
2019-05-26T04:11:33.355Z,93.50
2019-05-26T04:14:01.602Z,94.00
2019-05-26T04:16:29.857Z,93.80
2019-05-26T04:18:58.115Z,93.50
2019-05-26T04:21:26.373Z,93.10
2019-05-26T04:23:54.606Z,93.30
2019-05-26T04:26:22.854Z,93.70
2019-05-26T04:28:51.085Z,93.80
2019-05-26T04:31:19.329Z,93.80
2019-05-26T04:33:47.577Z,93.50
2019-05-26T04:36:15.817Z,93.30
2019-05-26T04:38:44.068Z,93.00
2019-05-26T04:41:12.318Z,92.60
2019-05-26T04:43:40.574Z,92.60
2019-05-26T04:46:08.839Z,93.00
2019-05-26T04:48:37.075Z,92.70
2019-05-26T04:51:05.328Z,92.60
2019-05-26T04:53:33.569Z,92.50
2019-05-26T04:56:01.826Z,92.40
2019-05-26T04:58:30.082Z,92.20
2019-05-26T05:00:58.335Z,92.50
2019-05-26T05:03:26.577Z,92.50
2019-05-26T05:05:54.819Z,92.00
2019-05-26T05:08:23.064Z,91.80
2019-05-26T05:10:51.298Z,91.90
2019-05-26T05:13:19.578Z,92.10
2019-05-26T05:15:47.878Z,92.40
2019-05-26T05:18:16.141Z,92.40
2019-05-26T05:20:44.386Z,92.50
2019-05-26T05:23:12.645Z,93.30
2019-05-26T05:25:40.880Z,93.20
2019-05-26T05:28:09.144Z,93.00
2019-05-26T05:30:37.373Z,92.50
2019-05-26T05:33:05.626Z,92.40
2019-05-26T05:35:33.888Z,92.20
2019-05-26T05:38:02.130Z,91.90
2019-05-26T05:40:30.403Z,91.90
2019-05-26T05:42:58.670Z,91.70
2019-05-26T05:45:26.925Z,91.90
2019-05-26T05:47:55.180Z,91.90
2019-05-26T05:50:23.429Z,91.80
2019-05-26T05:52:51.669Z,91.80
2019-05-26T05:55:21.692Z,91.70
2019-05-26T05:57:50.002Z,91.70
2019-05-26T06:00:18.333Z,91.70
2019-05-26T06:02:46.578Z,91.80
2019-05-26T06:05:14.823Z,92.00
2019-05-26T06:07:43.137Z,92.50
2019-05-26T06:10:11.401Z,92.00
2019-05-26T06:12:39.645Z,92.00
2019-05-26T06:15:10.784Z,92.20
2019-05-26T06:17:39.017Z,92.50
2019-05-26T06:20:07.290Z,92.60
2019-05-26T06:22:35.549Z,91.90
2019-05-26T06:25:05.048Z,91.90
2019-05-26T06:27:33.274Z,91.80
2019-05-26T06:30:01.626Z,92.50
2019-05-26T06:32:29.849Z,92.70
2019-05-26T06:34:58.112Z,92.60
2019-05-26T06:37:26.381Z,91.90
2019-05-26T06:39:54.607Z,91.80
2019-05-26T06:42:22.857Z,91.70
2019-05-26T06:44:53.816Z,91.60
2019-05-26T06:47:21.137Z,91.00
2019-05-26T06:49:49.356Z,90.70
2019-05-26T06:52:17.609Z,90.70
2019-05-26T06:54:45.853Z,90.60
2019-05-26T06:57:14.109Z,90.50
2019-05-26T06:59:42.349Z,90.40
2019-05-26T07:02:10.650Z,89.60
2019-05-26T07:04:38.982Z,88.70
2019-05-26T07:07:07.244Z,88.60
2019-05-26T07:09:35.481Z,89.50
2019-05-26T07:12:03.732Z,88.70
2019-05-26T07:14:31.971Z,90.50
2019-05-26T07:17:00.234Z,90.20
2019-05-26T07:19:28.521Z,89.80
2019-05-26T07:21:56.761Z,88.80
2019-05-26T07:24:29.211Z,88.80
2019-05-26T07:26:54.997Z,90.20
2019-05-26T07:29:23.250Z,90.40
2019-05-26T07:31:51.508Z,90.10
2019-05-26T07:34:19.740Z,90.00
2019-05-26T07:36:47.997Z,89.20
2019-05-26T07:39:16.244Z,87.70
2019-05-26T07:41:44.508Z,84.30
2019-05-26T07:44:12.767Z,84.30
2019-05-26T07:46:41.011Z,82.30
2019-05-26T07:49:09.306Z,81.40
2019-05-26T07:51:37.529Z,81.80
2019-05-26T07:54:05.837Z,81.40
2019-05-26T07:56:34.075Z,80.70
2019-05-26T07:59:02.356Z,81.20
2019-05-26T08:01:36.080Z,79.60
2019-05-26T08:04:00.606Z,78.60
2019-05-26T08:06:28.816Z,79.80
2019-05-26T08:08:57.109Z,79.80
2019-05-26T08:11:25.356Z,76.10
2019-05-26T08:13:53.609Z,74.80
2019-05-26T08:16:21.856Z,73.70
2019-05-26T08:18:50.140Z,71.50
2019-05-26T08:21:18.393Z,73.80
2019-05-26T08:23:46.661Z,73.00
2019-05-26T08:26:14.891Z,70.90
2019-05-26T08:28:43.167Z,70.60
2019-05-26T08:31:13.392Z,72.00
2019-05-26T08:33:41.375Z,73.90
2019-05-26T08:36:09.667Z,72.80
2019-05-26T08:38:37.958Z,70.30
2019-05-26T08:41:06.193Z,71.80
2019-05-26T08:43:34.523Z,69.00
2019-05-26T08:46:02.775Z,67.70
2019-05-26T08:48:31.015Z,68.10
2019-05-26T08:50:59.271Z,68.10
2019-05-26T08:53:27.516Z,70.70
2019-05-26T08:55:55.795Z,70.90
2019-05-26T08:58:24.110Z,68.50
2019-05-26T09:00:52.389Z,68.90
2019-05-26T09:03:20.621Z,66.00
2019-05-26T09:05:48.881Z,66.00
2019-05-26T09:08:17.128Z,68.20
2019-05-26T09:10:45.401Z,65.60
2019-05-26T09:13:13.634Z,62.80
2019-05-26T09:15:42.928Z,59.50
2019-05-26T09:18:11.162Z,61.30
2019-05-26T09:20:39.459Z,60.40
2019-05-26T09:23:07.686Z,61.20
2019-05-26T09:25:36.024Z,59.20
2019-05-26T09:28:04.275Z,60.80
2019-05-26T09:30:32.532Z,58.90
2019-05-26T09:33:00.772Z,59.90
2019-05-26T09:35:29.032Z,60.70
2019-05-26T09:37:57.309Z,59.30
2019-05-26T09:40:25.611Z,59.40
2019-05-26T09:42:53.862Z,56.60
2019-05-26T09:45:22.110Z,58.20
2019-05-26T09:47:50.390Z,59.30
2019-05-26T09:50:18.621Z,58.60
2019-05-26T09:52:46.911Z,56.70
2019-05-26T09:55:15.223Z,57.40
2019-05-26T09:57:43.494Z,56.40
2019-05-26T10:00:15.219Z,58.90
2019-05-26T10:02:42.046Z,55.40
2019-05-26T10:05:10.253Z,55.40
2019-05-26T10:07:38.508Z,56.20
2019-05-26T10:10:07.285Z,55.80
2019-05-26T10:12:35.543Z,55.80
2019-05-26T10:15:05.218Z,53.30
2019-05-26T10:17:33.473Z,52.80
2019-05-26T10:20:01.711Z,51.70
2019-05-26T10:22:30.057Z,53.50
2019-05-26T10:24:58.296Z,53.40
2019-05-26T10:27:26.552Z,52.30
2019-05-26T10:29:54.824Z,53.50
2019-05-26T10:32:23.072Z,53.50
2019-05-26T10:34:51.334Z,55.20
2019-05-26T10:37:19.569Z,54.30
2019-05-26T10:39:47.840Z,53.30
2019-05-26T10:42:16.062Z,55.10
2019-05-26T10:44:44.331Z,55.80
2019-05-26T10:47:12.581Z,56.20
2019-05-26T10:49:40.842Z,54.00
2019-05-26T10:52:09.086Z,54.00
2019-05-26T10:54:37.338Z,54.70
2019-05-26T10:57:05.590Z,55.00
2019-05-26T10:59:33.842Z,55.20
2019-05-26T11:02:02.191Z,53.00
2019-05-26T11:04:30.453Z,53.70
2019-05-26T11:06:58.708Z,51.90
2019-05-26T11:09:26.962Z,52.10
2019-05-26T11:11:55.212Z,50.40
2019-05-26T11:14:23.454Z,50.10
2019-05-26T11:16:51.729Z,52.00
2019-05-26T11:19:20.017Z,52.70
2019-05-26T11:21:48.270Z,53.70
2019-05-26T11:24:16.503Z,51.60
2019-05-26T11:26:46.376Z,50.70
2019-05-26T11:29:14.612Z,52.60
2019-05-26T11:31:42.981Z,53.40
2019-05-26T11:34:11.295Z,48.50
2019-05-26T11:36:39.738Z,46.90
2019-05-26T11:39:08.172Z,47.30
2019-05-26T11:41:36.473Z,46.90
2019-05-26T11:44:17.032Z,46.80
2019-05-26T11:46:34.771Z,47.30
2019-05-26T11:49:03.020Z,48.00
2019-05-26T11:51:31.290Z,50.10
2019-05-26T11:53:59.531Z,50.00
2019-05-26T11:56:27.856Z,48.50
2019-05-26T11:58:56.098Z,45.30
2019-05-26T12:01:24.417Z,46.30
2019-05-26T12:03:52.693Z,45.10
2019-05-26T12:06:20.961Z,46.70
2019-05-26T12:08:49.210Z,47.90
2019-05-26T12:11:17.490Z,46.50
2019-05-26T12:13:45.730Z,48.10
2019-05-26T12:16:14.006Z,49.40
2019-05-26T12:18:42.309Z,49.60
2019-05-26T12:21:10.558Z,50.10
2019-05-26T12:23:38.805Z,48.00
2019-05-26T12:26:07.078Z,49.10
2019-05-26T12:28:35.338Z,48.30
2019-05-26T12:31:03.597Z,50.60
2019-05-26T12:33:31.864Z,48.80
2019-05-26T12:36:00.112Z,49.70
2019-05-26T12:38:28.365Z,50.00
2019-05-26T12:40:56.605Z,48.70
2019-05-26T12:43:24.866Z,48.40
2019-05-26T12:45:53.112Z,48.70
2019-05-26T12:48:21.387Z,49.30
2019-05-26T12:50:49.632Z,51.40
2019-05-26T12:53:17.881Z,49.40
2019-05-26T12:55:46.110Z,48.90
2019-05-26T12:58:14.413Z,49.20
2019-05-26T13:00:48.761Z,50.40
2019-05-26T13:03:12.676Z,50.70
2019-05-26T13:05:40.982Z,50.20
2019-05-26T13:08:09.238Z,49.10
2019-05-26T13:10:37.487Z,52.90
2019-05-26T13:13:05.834Z,51.60
2019-05-26T13:15:34.065Z,48.20
2019-05-26T13:18:02.321Z,48.40
2019-05-26T13:20:30.619Z,49.50
2019-05-26T13:22:58.881Z,49.40
2019-05-26T13:25:27.129Z,49.60
2019-05-26T13:27:55.392Z,48.90
2019-05-26T13:30:24.697Z,47.60
2019-05-26T13:32:52.929Z,48.10
2019-05-26T13:35:21.202Z,47.90
2019-05-26T13:37:49.457Z,50.10
2019-05-26T13:40:17.719Z,49.30
2019-05-26T13:42:45.945Z,50.50
2019-05-26T13:45:22.484Z,47.90
2019-05-26T13:47:45.899Z,48.20
2019-05-26T13:50:15.524Z,47.70
2019-05-26T13:52:43.824Z,47.70
2019-05-26T13:55:12.156Z,48.00
2019-05-26T13:57:40.409Z,46.80
2019-05-26T14:00:10.519Z,47.70
2019-05-26T14:02:38.789Z,49.00
2019-05-26T14:05:10.238Z,48.40
2019-05-26T14:07:38.470Z,49.70
2019-05-26T14:10:06.795Z,49.30
2019-05-26T14:12:35.021Z,49.70
2019-05-26T14:15:04.533Z,49.70
2019-05-26T14:17:33.037Z,48.60
2019-05-26T14:20:01.300Z,48.60
2019-05-26T14:22:29.607Z,47.50
2019-05-26T14:24:57.860Z,48.10
2019-05-26T14:27:26.128Z,47.40
2019-05-26T14:29:54.366Z,47.80
2019-05-26T14:32:22.625Z,48.50
2019-05-26T14:34:50.897Z,48.00
2019-05-26T14:37:19.142Z,48.90
2019-05-26T14:39:49.992Z,49.50
2019-05-26T14:42:17.372Z,47.20
2019-05-26T14:44:45.613Z,47.40
2019-05-26T14:47:13.887Z,47.20
2019-05-26T14:49:42.201Z,46.50
2019-05-26T14:52:10.457Z,47.10
2019-05-26T14:54:38.704Z,47.60
2019-05-26T14:57:06.976Z,46.50
2019-05-26T14:59:35.214Z,46.60
2019-05-26T15:02:03.464Z,46.90
2019-05-26T15:04:31.709Z,45.20
2019-05-26T15:06:59.969Z,46.80
2019-05-26T15:09:28.201Z,46.30
2019-05-26T15:11:56.458Z,47.60
2019-05-26T15:14:24.765Z,48.00
2019-05-26T15:16:53.047Z,47.20
2019-05-26T15:19:21.322Z,46.30
2019-05-26T15:21:49.703Z,45.90
2019-05-26T15:24:17.956Z,44.60
2019-05-26T15:26:46.197Z,44.40
2019-05-26T15:29:14.473Z,45.40
2019-05-26T15:31:42.709Z,46.00
2019-05-26T15:34:10.976Z,45.60
2019-05-26T15:36:39.208Z,45.60
2019-05-26T15:39:07.547Z,46.20
2019-05-26T15:41:35.769Z,45.30
2019-05-26T15:44:04.046Z,45.40
2019-05-26T15:46:32.365Z,46.20
2019-05-26T15:49:00.610Z,46.60
2019-05-26T15:51:28.846Z,45.00
2019-05-26T15:53:57.241Z,44.80
2019-05-26T15:56:25.481Z,44.70
2019-05-26T15:58:53.824Z,44.80
2019-05-26T16:01:22.054Z,44.30
2019-05-26T16:03:50.332Z,44.10
2019-05-26T16:06:18.592Z,44.10
2019-05-26T16:08:46.827Z,45.40
2019-05-26T16:11:15.084Z,45.60
2019-05-26T16:13:43.410Z,45.00
2019-05-26T16:16:11.703Z,43.90
2019-05-26T16:18:39.934Z,45.50
2019-05-26T16:21:24.798Z,45.60
2019-05-26T16:23:38.205Z,43.80
2019-05-26T16:26:06.486Z,43.80
2019-05-26T16:28:34.798Z,44.10
2019-05-26T16:31:03.126Z,44.40
2019-05-26T16:33:31.381Z,44.20
2019-05-26T16:35:59.668Z,43.60
2019-05-26T16:38:27.893Z,43.40
2019-05-26T16:40:56.151Z,42.90
2019-05-26T16:43:24.414Z,42.60
2019-05-26T16:45:56.311Z,42.40
2019-05-26T16:48:22.680Z,43.10
2019-05-26T16:50:50.954Z,43.50
2019-05-26T16:53:19.194Z,43.40
2019-05-26T16:55:47.446Z,41.90
2019-05-26T16:58:15.754Z,41.60
2019-05-26T17:00:44.038Z,41.90
2019-05-26T17:03:12.277Z,43.20
2019-05-26T17:05:40.554Z,41.90
2019-05-26T17:08:08.818Z,42.00
2019-05-26T17:10:37.067Z,41.80
2019-05-26T17:13:05.298Z,41.30
2019-05-26T17:15:33.530Z,42.00
2019-05-26T17:18:01.814Z,41.50
2019-05-26T17:20:30.095Z,39.00
2019-05-26T17:22:58.411Z,37.20
2019-05-26T17:25:26.673Z,36.60
2019-05-26T17:27:54.987Z,38.10
2019-05-26T17:30:23.219Z,36.90
2019-05-26T17:32:51.490Z,36.80
2019-05-26T17:35:19.806Z,35.70
2019-05-26T17:37:48.113Z,37.70
2019-05-26T17:40:16.809Z,33.60
2019-05-26T17:42:45.084Z,32.70
2019-05-26T17:45:13.326Z,32.40
2019-05-26T17:47:41.585Z,34.30
2019-05-26T17:50:11.477Z,33.00
2019-05-26T17:52:39.740Z,33.00
2019-05-26T17:55:08.458Z,33.80
2019-05-26T17:57:37.270Z,35.70
2019-05-26T18:00:10.524Z,37.40
2019-05-26T18:02:38.819Z,38.10
2019-05-26T18:05:07.100Z,36.80
2019-05-26T18:07:35.421Z,41.00
2019-05-26T18:10:07.629Z,43.50
2019-05-26T18:12:35.935Z,44.30
2019-05-26T18:15:06.854Z,45.70
2019-05-26T18:17:46.357Z,47.00
2019-05-26T18:20:06.024Z,49.30
2019-05-26T18:22:34.366Z,50.60
2019-05-26T18:25:02.700Z,51.30
2019-05-26T18:27:30.947Z,51.70
2019-05-26T18:29:59.224Z,53.00
2019-05-26T18:32:27.470Z,54.10
2019-05-26T18:34:55.742Z,54.70
2019-05-26T18:37:23.971Z,57.00
2019-05-26T18:39:52.243Z,56.80
2019-05-26T18:42:20.486Z,57.60
2019-05-26T18:44:48.823Z,58.90
2019-05-26T18:47:17.078Z,59.30
2019-05-26T18:49:45.340Z,58.70
2019-05-26T18:52:13.607Z,58.70
2019-05-26T18:54:41.890Z,59.80
2019-05-26T18:57:10.135Z,61.30
2019-05-26T18:59:38.433Z,61.60
2019-05-26T19:02:06.666Z,62.90
2019-05-26T19:04:34.940Z,62.70
2019-05-26T19:07:03.212Z,63.70
2019-05-26T19:09:31.482Z,64.60
2019-05-26T19:11:59.719Z,65.10
2019-05-26T19:14:27.985Z,65.70
2019-05-26T19:16:56.230Z,65.90
2019-05-26T19:19:24.565Z,66.30
2019-05-26T19:21:52.843Z,67.20
2019-05-26T19:24:21.194Z,67.40
2019-05-26T19:26:49.455Z,67.50
2019-05-26T19:29:17.706Z,68.10
2019-05-26T19:31:45.975Z,68.70
2019-05-26T19:34:14.236Z,68.80
2019-05-26T19:36:42.504Z,69.20
2019-05-26T19:39:10.820Z,69.50
2019-05-26T19:41:39.527Z,69.80
2019-05-26T19:44:08.473Z,69.80
2019-05-26T19:46:36.772Z,70.60
2019-05-26T19:49:05.045Z,71.20
2019-05-26T19:51:33.392Z,71.30
2019-05-26T19:54:01.640Z,71.50
2019-05-26T19:56:29.911Z,71.60
2019-05-26T19:58:58.150Z,71.20
2019-05-26T20:01:26.430Z,72.00
2019-05-26T20:03:54.687Z,70.90
2019-05-26T20:06:23.013Z,71.40
2019-05-26T20:08:51.261Z,71.40
2019-05-26T20:11:19.581Z,71.50
2019-05-26T20:13:47.803Z,71.00
2019-05-26T20:16:16.058Z,71.50
2019-05-26T20:18:44.359Z,71.60
2019-05-26T20:21:12.645Z,71.90
2019-05-26T20:23:40.896Z,71.80
2019-05-26T20:26:09.157Z,73.10
2019-05-26T20:28:37.400Z,74.00
2019-05-26T20:31:05.647Z,73.80
2019-05-26T20:33:33.888Z,73.10
2019-05-26T20:36:02.175Z,73.10
2019-05-26T20:38:33.401Z,73.20
2019-05-26T20:41:01.644Z,73.90
2019-05-26T20:43:29.906Z,74.00
2019-05-26T20:45:58.162Z,74.70
2019-05-26T20:48:26.484Z,74.20
2019-05-26T20:50:54.786Z,73.80
2019-05-26T20:53:23.221Z,74.10
2019-05-26T20:55:51.465Z,74.00
2019-05-26T20:58:19.705Z,74.60
2019-05-26T21:00:47.941Z,74.90
2019-05-26T21:03:16.196Z,74.80
2019-05-26T21:05:44.700Z,75.20
2019-05-26T21:08:12.961Z,75.70
2019-05-26T21:10:41.197Z,76.30
2019-05-26T21:13:09.478Z,77.00
2019-05-26T21:15:37.703Z,76.60
2019-05-26T21:18:05.977Z,77.00
2019-05-26T21:20:34.386Z,77.20
2019-05-26T21:23:02.646Z,78.10
2019-05-26T21:25:30.958Z,76.80
2019-05-26T21:27:59.241Z,76.10
2019-05-26T21:30:27.457Z,76.50
2019-05-26T21:32:55.773Z,77.00
2019-05-26T21:35:24.037Z,76.70
2019-05-26T21:37:52.274Z,76.40
2019-05-26T21:40:20.544Z,77.20
2019-05-26T21:42:48.765Z,77.70
2019-05-26T21:45:17.013Z,77.80
2019-05-26T21:47:45.283Z,77.80
2019-05-26T21:50:14.593Z,78.40
2019-05-26T21:52:43.179Z,78.20
2019-05-26T21:55:11.548Z,78.40
2019-05-26T21:57:39.802Z,78.70
2019-05-26T22:00:11.265Z,78.30
2019-05-26T22:02:39.910Z,79.00
2019-05-26T22:05:08.156Z,79.00
2019-05-26T22:07:36.410Z,79.20
2019-05-26T22:10:05.537Z,79.70
2019-05-26T22:12:33.788Z,79.70
2019-05-26T22:15:02.091Z,80.00
2019-05-26T22:17:30.426Z,80.10
2019-05-26T22:19:58.693Z,80.00
2019-05-26T22:22:26.956Z,79.60
2019-05-26T22:24:55.197Z,79.30
2019-05-26T22:27:23.500Z,79.50
2019-05-26T22:29:51.778Z,79.70
2019-05-26T22:32:20.030Z,79.70
2019-05-26T22:34:48.296Z,80.00
2019-05-26T22:37:16.595Z,81.00
2019-05-26T22:39:44.884Z,80.70
2019-05-26T22:42:13.131Z,80.70
2019-05-26T22:44:41.354Z,80.50
2019-05-26T22:47:09.623Z,80.70
2019-05-26T22:49:37.864Z,81.20
2019-05-26T22:52:06.175Z,81.20
2019-05-26T22:54:34.397Z,80.90
2019-05-26T22:57:02.664Z,80.70
2019-05-26T22:59:30.900Z,81.10
2019-05-26T23:01:59.138Z,81.50
2019-05-26T23:04:27.378Z,81.40
2019-05-26T23:06:55.636Z,81.20
2019-05-26T23:09:23.886Z,81.30
2019-05-26T23:11:52.194Z,81.70
2019-05-26T23:14:20.427Z,82.70
2019-05-26T23:16:48.707Z,82.50
2019-05-26T23:19:19.802Z,82.60
2019-05-26T23:21:47.057Z,82.80
2019-05-26T23:24:15.349Z,82.60
2019-05-26T23:26:43.638Z,82.40
2019-05-26T23:29:11.972Z,82.60
2019-05-26T23:31:40.202Z,82.20
2019-05-26T23:34:08.452Z,82.50
2019-05-26T23:36:36.702Z,82.30
2019-05-26T23:39:06.446Z,82.60
2019-05-26T23:41:35.145Z,82.80
2019-05-26T23:44:03.478Z,82.90
2019-05-26T23:46:31.727Z,83.00
2019-05-26T23:49:00.018Z,83.60
2019-05-26T23:51:28.258Z,83.40
2019-05-26T23:53:56.600Z,83.40
2019-05-26T23:56:24.817Z,83.60
2019-05-26T23:58:53.074Z,83.60
